Time;durP1;ratioP1;P1;durP2;ratioP2;P2;SDS_P1;SDS_P2;PMS_P1;PMS_P2;Temp;Humidity;BMP_temperature;BMP_pressure;BME280_temperature;BME280_humidity;BME280_pressure;Samples;Min_cycle;Max_cycle;Signal;HPM_P1;HPM_P2
2020/12/04 00:01:18;;;;;;;9.02;4.82;;;4.80;99.90;;;5.31;76.19;97746.81;4999588;28;20026;-80
2020/12/04 00:03:44;;;;;;;8.90;4.95;;;4.90;99.90;;;5.36;76.04;97751.19;4999556;28;20037;-83
2020/12/04 00:06:10;;;;;;;8.52;4.95;;;4.90;99.90;;;5.36;75.94;97746.47;5000115;28;20036;-81
2020/12/04 00:08:38;;;;;;;7.43;4.85;;;4.90;99.90;;;5.35;76.27;97739.31;5000317;28;20426;-81
2020/12/04 00:11:04;;;;;;;8.27;4.82;;;5.00;99.90;;;5.41;75.96;97743.28;5000388;28;20104;-82
2020/12/04 00:13:30;;;;;;;5.82;3.85;;;5.00;99.90;;;5.31;76.84;97733.78;4999115;28;20118;-81
2020/12/04 00:15:57;;;;;;;7.97;4.78;;;5.00;99.90;;;5.42;76.55;97744.09;4981502;28;20045;-81
2020/12/04 00:18:23;;;;;;;7.28;4.20;;;5.10;99.90;;;5.37;76.33;97734.19;4999939;28;20038;-79
2020/12/04 00:20:49;;;;;;;8.50;4.85;;;5.10;99.90;;;5.36;75.88;97729.84;4999718;28;20476;-82
2020/12/04 00:23:15;;;;;;;6.93;4.43;;;5.10;99.90;;;5.47;75.70;97719.56;4999394;28;20037;-80
2020/12/04 00:25:40;;;;;;;6.93;4.72;;;5.10;99.90;;;5.50;76.23;97726.28;4998856;28;20461;-81
2020/12/04 00:28:06;;;;;;;7.13;4.60;;;5.00;99.90;;;5.43;76.40;97726.25;4998295;28;20126;-81
2020/12/04 00:30:33;;;;;;;7.25;5.18;;;5.00;99.90;;;5.43;76.06;97723.50;4998285;28;20038;-83
2020/12/04 00:32:59;;;;;;;9.13;4.53;;;5.00;99.90;;;5.40;76.33;97722.31;4999119;28;20218;-80
2020/12/04 00:35:25;;;;;;;6.63;4.35;;;5.00;99.90;;;5.36;76.89;97717.97;4998554;28;20071;-81
2020/12/04 00:37:51;;;;;;;7.82;4.65;;;5.00;99.90;;;5.50;76.13;97699.41;4998276;28;20038;-81
2020/12/04 00:40:17;;;;;;;6.88;4.38;;;5.00;99.90;;;5.41;76.05;97704.53;4999291;28;20061;-80
2020/12/04 00:42:46;;;;;;;7.47;4.38;;;5.10;99.90;;;5.32;76.52;97698.59;4998127;28;20034;-79
2020/12/04 00:45:14;;;;;;;7.63;4.72;;;5.10;99.90;;;5.34;75.88;97707.28;4999653;28;20031;-80
2020/12/04 00:47:41;;;;;;;7.25;4.07;;;5.10;99.90;;;5.37;76.94;97697.41;4997910;28;20041;-80
2020/12/04 00:50:08;;;;;;;8.30;5.13;;;5.00;99.90;;;5.31;76.74;97697.03;4981744;28;20084;-81
2020/12/04 00:52:34;;;;;;;9.75;4.85;;;5.00;99.90;;;5.23;77.27;97687.91;4999240;28;20054;-82
2020/12/04 00:54:59;;;;;;;9.60;4.97;;;5.00;99.90;;;5.27;77.80;97682.38;4999051;28;20206;-81
2020/12/04 00:57:25;;;;;;;8.73;5.25;;;5.00;99.90;;;5.27;78.15;97679.63;5000013;28;20038;-82
2020/12/04 00:59:51;;;;;;;7.55;5.05;;;4.90;99.90;;;5.27;77.81;97688.72;4999957;28;20490;-82
2020/12/04 01:02:17;;;;;;;7.05;4.70;;;4.90;99.90;;;5.19;77.71;97687.13;5000238;28;20030;-82
2020/12/04 01:04:43;;;;;;;7.60;5.00;;;4.90;99.90;;;5.16;78.17;97684.38;4998672;28;20033;-81
2020/12/04 01:07:09;;;;;;;7.15;4.82;;;4.80;99.90;;;5.25;78.92;97682.00;4981964;28;20084;-81
2020/12/04 01:09:35;;;;;;;7.50;4.30;;;4.90;99.90;;;5.18;78.57;97680.00;4998997;28;20121;-80
2020/12/04 01:12:04;;;;;;;7.45;5.22;;;4.90;99.90;;;5.26;79.30;97670.56;4999087;28;20034;-81
2020/12/04 01:14:30;;;;;;;6.43;4.70;;;4.90;99.90;;;5.22;78.77;97682.78;4999567;28;20034;-81
2020/12/04 01:16:56;;;;;;;6.75;4.47;;;4.90;99.90;;;5.18;78.85;97673.69;4981449;28;20064;-81
2020/12/04 01:19:23;;;;;;;7.78;4.55;;;4.90;99.90;;;5.24;79.23;97658.28;4998685;28;20038;-81
2020/12/04 01:21:50;;;;;;;6.82;4.32;;;5.00;99.90;;;5.26;79.64;97664.22;4998966;28;20034;-80
2020/12/04 01:24:17;;;;;;;6.53;4.05;;;5.00;99.90;;;5.36;78.84;97640.50;4999722;28;20112;-80
2020/12/04 01:26:43;;;;;;;8.60;4.80;;;5.10;99.90;;;5.33;79.38;97644.81;5000054;28;20045;-81
2020/12/04 01:29:09;;;;;;;6.97;4.28;;;5.10;99.90;;;5.32;79.06;97646.84;4999718;28;20137;-82
2020/12/04 01:31:36;;;;;;;6.60;4.32;;;5.10;99.90;;;5.42;79.03;97630.63;5011295;28;20046;-81
2020/12/04 01:34:02;;;;;;;5.28;3.63;;;5.10;99.90;;;5.40;79.45;97625.47;5011903;28;20382;-81
2020/12/04 01:36:32;;;;;;;7.05;4.70;;;5.10;99.90;;;5.47;79.48;97642.06;4999340;28;20041;-81
2020/12/04 01:38:58;;;;;;;7.20;4.70;;;5.10;99.90;;;5.50;80.26;97627.44;4998543;28;20054;-80
2020/12/04 01:41:24;;;;;;;6.10;4.25;;;5.10;99.90;;;5.46;79.63;97629.41;4997826;28;20027;-82
2020/12/04 01:43:50;;;;;;;6.65;4.30;;;5.10;99.90;;;5.46;80.05;97626.63;4997753;28;20045;-81
2020/12/04 01:46:17;;;;;;;6.72;4.10;;;5.10;99.90;;;5.39;79.44;97620.34;4998586;28;20434;-81
2020/12/04 01:48:46;;;;;;;6.55;4.15;;;5.10;99.90;;;5.45;79.02;97622.31;4998574;28;20057;-82
2020/12/04 01:51:12;;;;;;;6.60;4.40;;;5.20;99.90;;;5.48;79.70;97615.97;4998915;28;20038;-80
2020/12/04 01:53:44;;;;;;;4.80;3.30;;;5.10;99.90;;;5.47;78.68;97616.34;4998360;28;20034;-80
2020/12/04 01:56:11;;;;;;;7.57;4.07;;;5.20;99.90;;;5.51;77.94;97622.69;4998106;28;20034;-82
2020/12/04 01:58:37;;;;;;;5.43;4.03;;;5.30;99.90;;;5.59;78.24;97624.25;4998314;28;20047;-83
2020/12/04 02:01:07;;;;;;;5.93;3.78;;;5.30;99.90;;;5.55;77.82;97620.72;4998196;28;20106;-82
2020/12/04 02:03:36;;;;;;;6.00;4.03;;;5.30;99.90;;;5.54;78.19;97600.53;4998795;28;20026;-82
2020/12/04 02:06:17;;;;;;;6.00;3.85;;;5.30;99.90;;;5.52;77.99;97632.59;4998750;28;20034;-80
2020/12/04 02:09:01;;;;;;;5.82;4.05;;;5.30;99.90;;;5.56;78.74;97600.13;4998389;28;20046;-82
2020/12/04 02:11:31;;;;;;;7.10;3.95;;;5.30;99.90;;;5.53;78.62;97595.38;4997565;28;20034;-80
2020/12/04 02:14:00;;;;;;;6.85;3.90;;;5.20;99.90;;;5.54;79.02;97596.97;4998683;28;20044;-80
2020/12/04 02:16:26;;;;;;;7.93;4.75;;;5.20;99.90;;;5.55;79.87;97585.53;4999257;28;20031;-81
2020/12/04 02:18:52;;;;;;;7.35;4.60;;;5.20;99.90;;;5.36;80.18;97587.94;4999124;28;20489;-79
2020/12/04 02:21:19;;;;;;;7.30;4.47;;;5.10;99.90;;;5.39;81.10;97584.38;4980970;28;20031;-82
2020/12/04 02:23:52;;;;;;;7.28;4.47;;;5.10;99.90;;;5.38;80.77;97574.47;4996754;28;20474;-82
2020/12/04 02:26:21;;;;;;;7.60;4.35;;;5.00;99.90;;;5.25;80.88;97576.88;4996400;28;20097;-80
2020/12/04 02:28:49;;;;;;;8.82;4.82;;;5.00;99.90;;;5.26;81.85;97575.69;4996334;28;20034;-80
2020/12/04 02:31:15;;;;;;;7.40;4.43;;;5.00;99.90;;;5.17;81.39;97591.91;4996216;28;20039;-80
2020/12/04 02:33:42;;;;;;;6.55;4.45;;;4.90;99.90;;;5.19;81.24;97570.16;4995545;28;20035;-80
2020/12/04 02:36:10;;;;;;;8.57;4.60;;;4.90;99.90;;;5.17;80.82;97565.00;4996384;28;20038;-81
2020/12/04 02:38:37;;;;;;;7.57;4.72;;;4.90;99.90;;;5.23;81.98;97562.66;4996700;28;20034;-81
2020/12/04 02:41:07;;;;;;;7.47;4.55;;;4.90;99.90;;;5.18;82.27;97546.44;4997238;28;20037;-82
2020/12/04 02:43:33;;;;;;;9.02;4.70;;;4.80;99.90;;;5.15;82.13;97547.22;4995491;28;20121;-82
2020/12/04 02:45:59;;;;;;;8.05;4.63;;;4.80;99.90;;;5.14;82.74;97529.84;4996218;28;20030;-83
2020/12/04 02:48:25;;;;;;;8.30;4.60;;;4.80;99.90;;;5.19;81.73;97536.97;4995887;28;20034;-83
2020/12/04 02:50:52;;;;;;;7.43;4.63;;;4.90;99.90;;;5.22;81.63;97502.97;4979275;28;20097;-81
2020/12/04 02:53:18;;;;;;;8.30;4.47;;;4.90;99.90;;;5.25;82.00;97525.09;4996342;28;20071;-81
2020/12/04 02:55:43;;;;;;;5.32;4.13;;;4.90;99.90;;;5.24;81.74;97515.19;4979081;28;20077;-82
2020/12/04 02:58:09;;;;;;;6.38;4.07;;;5.00;99.90;;;5.24;82.70;97498.59;4995581;28;20109;-82
2020/12/04 03:00:35;;;;;;;7.05;4.20;;;5.00;99.90;;;5.28;81.29;97496.63;4977781;28;20384;-83
2020/12/04 03:03:04;;;;;;;4.68;3.20;;;5.00;99.90;;;5.35;80.64;97495.03;4977968;28;20066;-81
2020/12/04 03:05:30;;;;;;;6.95;4.40;;;5.00;99.90;;;5.43;80.91;97486.28;4995284;28;20039;-82
2020/12/04 03:07:56;;;;;;;5.32;3.40;;;5.10;99.90;;;5.51;79.75;97476.00;4977922;28;20501;-82
2020/12/04 03:10:22;;;;;;;6.60;4.05;;;5.20;99.90;;;5.62;79.62;97479.53;4995889;28;20034;-81
2020/12/04 03:12:47;;;;;;;5.28;3.78;;;5.30;99.90;;;5.59;79.46;97463.69;4995977;28;20084;-81
2020/12/04 03:15:13;;;;;;;6.35;4.03;;;5.30;99.90;;;5.62;80.02;97477.53;4996164;28;20042;-81
2020/12/04 03:17:39;;;;;;;4.80;3.15;;;5.20;99.90;;;5.63;78.96;97465.25;4979017;28;20154;-82
2020/12/04 03:20:05;;;;;;;4.10;2.92;;;5.30;99.90;;;5.67;78.61;97452.19;4998618;28;20097;-83
2020/12/04 03:22:31;;;;;;;6.00;3.50;;;5.40;99.90;;;5.76;79.04;97462.81;4999383;28;20497;-81
2020/12/04 03:24:57;;;;;;;5.57;3.38;;;5.40;99.90;;;5.65;79.14;97446.25;4999345;28;20046;-81
2020/12/04 03:27:23;;;;;;;5.30;3.50;;;5.40;99.90;;;5.71;79.22;97464.06;4981377;28;20038;-79
2020/12/04 03:29:49;;;;;;;4.63;3.30;;;5.40;99.90;;;5.76;78.78;97463.63;5000077;28;20034;-79
2020/12/04 03:32:15;;;;;;;5.07;3.25;;;5.40;99.90;;;5.82;78.64;97448.16;5019576;23;20046;-81
2020/12/04 03:34:42;;;;;;;3.83;2.80;;;5.50;99.90;;;5.91;78.15;97446.97;4979622;28;20038;-79
2020/12/04 03:37:09;;;;;;;5.82;3.13;;;5.50;99.90;;;5.86;77.58;97426.03;4979550;28;20027;-81
2020/12/04 03:39:36;;;;;;;4.18;3.22;;;5.50;99.90;;;5.94;78.36;97430.31;4996882;28;20375;-79
2020/12/04 03:42:05;;;;;;;3.30;2.75;;;5.50;99.90;;;5.93;77.29;97420.44;4979877;28;20026;-81
2020/12/04 03:44:31;;;;;;;5.18;3.15;;;5.60;99.90;;;6.02;77.27;97420.78;4979447;28;20036;-80
2020/12/04 03:47:00;;;;;;;5.00;3.13;;;5.60;99.90;;;6.07;77.01;97423.09;4979674;28;20458;-79
2020/12/04 03:49:27;;;;;;;3.58;2.70;;;5.80;99.90;;;6.13;76.57;97424.25;4980075;28;20490;-79
2020/12/04 03:51:53;;;;;;;4.28;2.95;;;5.80;99.90;;;6.07;77.20;97394.63;4979116;28;20037;-79
2020/12/04 03:54:19;;;;;;;3.67;2.60;;;5.80;99.90;;;6.09;77.06;97436.56;4979391;28;20026;-79
2020/12/04 03:56:44;;;;;;;4.43;2.75;;;5.80;99.90;;;6.10;76.49;97413.22;4980185;28;20121;-79
2020/12/04 03:59:10;;;;;;;4.50;3.20;;;5.80;99.90;;;6.15;76.70;97407.22;4997695;28;20030;-80
2020/12/04 04:01:36;;;;;;;5.15;3.10;;;5.80;99.90;;;6.08;76.22;97418.34;4980201;28;20022;-79
2020/12/04 04:04:02;;;;;;;3.97;2.63;;;5.80;99.90;;;6.11;76.74;97410.03;4997932;28;20026;-81
2020/12/04 04:06:32;;;;;;;4.82;3.15;;;5.80;99.90;;;6.15;76.78;97407.22;4981929;28;20496;-80
2020/12/04 04:08:58;;;;;;;4.80;3.00;;;5.90;99.90;;;6.11;76.28;97393.41;4979379;28;20070;-78
2020/12/04 04:11:30;;;;;;;3.85;2.55;;;5.90;99.90;;;6.20;76.08;97393.72;4989267;28;20034;-81
2020/12/04 04:13:56;;;;;;;5.03;2.63;;;5.90;99.90;;;6.24;75.53;97397.25;4997802;28;20069;-79
2020/12/04 04:16:22;;;;;;;3.78;2.40;;;6.00;99.90;;;6.40;75.94;97393.97;4979596;28;20037;-81
2020/12/04 04:18:49;;;;;;;3.88;2.70;;;6.10;99.90;;;6.34;75.76;97396.41;4997283;28;20030;-80
2020/12/04 04:21:15;;;;;;;4.63;2.58;;;6.00;99.90;;;6.34;75.46;97406.69;4978992;28;20027;-78
2020/12/04 04:23:41;;;;;;;4.50;2.70;;;6.10;99.90;;;6.40;75.36;97387.63;4978244;28;20624;-79
2020/12/04 04:26:08;;;;;;;4.18;2.88;;;6.10;99.90;;;6.41;75.76;97392.78;4994468;28;20214;-80
2020/12/04 04:28:34;;;;;;;3.00;2.40;;;6.10;99.90;;;6.42;75.70;97404.66;4979208;28;20441;-79
2020/12/04 04:31:03;;;;;;;4.95;2.72;;;6.10;99.90;;;6.39;75.82;97392.38;4995278;28;20030;-77
2020/12/04 04:33:32;;;;;;;3.47;2.33;;;6.00;99.90;;;6.39;75.18;97400.69;4978955;28;20030;-80
2020/12/04 04:35:58;;;;;;;4.40;2.70;;;6.10;99.90;;;6.44;75.42;97424.44;4978779;28;20041;-78
2020/12/04 04:38:24;;;;;;;3.22;2.53;;;6.10;99.90;;;6.51;74.64;97410.50;4995927;28;20034;-79
2020/12/04 04:40:56;;;;;;;8.65;2.63;;;6.20;99.90;;;6.54;75.11;97431.88;4978668;28;20033;-79
2020/12/04 04:43:25;;;;;;;3.45;2.17;;;6.20;99.90;;;6.58;75.04;97419.53;4978812;28;20022;-80
2020/12/04 04:45:53;;;;;;;4.22;2.40;;;6.20;99.90;;;6.57;75.73;97425.50;4996777;28;20428;-79
2020/12/04 04:48:32;;;;;;;3.95;2.58;;;6.30;99.90;;;6.61;75.72;97434.59;4978201;28;20030;-79
2020/12/04 04:51:00;;;;;;;4.20;2.33;;;6.30;99.90;;;6.57;75.75;97426.31;4978604;28;20054;-79
2020/12/04 04:53:27;;;;;;;3.25;2.40;;;6.30;99.90;;;6.61;76.64;97432.59;4996829;28;20038;-79
2020/12/04 04:55:55;;;;;;;4.00;2.47;;;6.30;99.90;;;6.64;77.00;97431.00;4980128;28;20125;-78
2020/12/04 04:58:21;;;;;;;4.35;2.30;;;6.20;99.90;;;6.55;78.31;97437.00;4994760;28;20030;-78
2020/12/04 05:00:47;;;;;;;4.75;2.58;;;6.20;99.90;;;6.41;78.34;97437.13;4978945;28;20041;-78
2020/12/04 05:03:13;;;;;;;7.22;2.55;;;6.10;99.90;;;6.35;79.62;97436.00;4979342;28;20386;-79
2020/12/04 05:05:51;;;;;;;3.28;2.17;;;6.10;99.90;;;6.29;79.66;97435.63;4979327;28;20031;-81
2020/12/04 05:08:22;;;;;;;3.17;2.25;;;6.00;99.90;;;6.29;80.13;97454.25;4996259;28;20035;-80
2020/12/04 05:10:50;;;;;;;3.67;2.67;;;6.00;99.90;;;6.25;80.65;97439.63;4977904;28;20030;-80
2020/12/04 05:13:21;;;;;;;4.57;2.50;;;5.90;99.90;;;6.22;82.05;97445.97;4977444;28;20030;-81
2020/12/04 05:15:48;;;;;;;3.75;2.60;;;5.90;99.90;;;6.15;81.61;97448.78;4977989;28;20034;-82
2020/12/04 05:18:17;;;;;;;4.05;2.80;;;5.80;99.90;;;6.13;81.63;97432.56;4984671;28;20027;-79
2020/12/04 05:21:39;;;;;;;3.65;2.75;;;5.80;99.90;;;6.10;82.88;97430.59;5001689;28;20031;-80
2020/12/04 05:24:06;;;;;;;4.63;2.75;;;5.80;99.90;;;6.11;82.78;97440.50;4996814;28;20046;-80
2020/12/04 05:26:38;;;;;;;4.20;2.83;;;5.70;99.90;;;5.98;83.06;97433.06;4994793;28;20026;-80
2020/12/04 05:29:05;;;;;;;5.70;3.22;;;5.70;99.90;;;6.02;83.20;97445.72;4978263;28;20018;-80
2020/12/04 05:31:35;;;;;;;3.63;2.30;;;5.70;99.90;;;5.92;82.96;97435.47;4978111;28;20034;-81
2020/12/04 05:34:22;;;;;;;4.18;2.80;;;5.70;99.90;;;5.94;83.29;97437.84;4977917;28;20022;-80
2020/12/04 05:36:51;;;;;;;3.75;2.90;;;5.70;99.90;;;5.99;83.33;97438.22;4978135;28;20505;-82
2020/12/04 05:39:18;;;;;;;5.68;3.08;;;5.70;99.90;;;5.98;83.29;97436.63;4995919;28;20386;-82
2020/12/04 05:41:49;;;;;;;5.35;2.85;;;5.70;99.90;;;5.96;84.19;97427.94;4978038;28;20030;-84
2020/12/04 05:44:18;;;;;;;4.82;2.92;;;5.70;99.90;;;5.94;84.75;97426.78;4978697;28;20022;-82
2020/12/04 05:46:54;;;;;;;5.28;3.22;;;5.60;99.90;;;5.90;84.51;97431.53;4996373;28;20057;-84
2020/12/04 05:49:23;;;;;;;;;;;5.60;99.90;;;5.95;84.80;97429.13;4979150;28;20038;-79
2020/12/04 05:51:55;;;;;;;4.97;3.40;;;5.70;99.90;;;5.94;83.85;97422.00;4994645;28;19910;-82
2020/12/04 05:54:23;;;;;;;5.55;2.80;;;5.70;99.90;;;5.94;83.85;97432.31;4978084;28;20113;-82
2020/12/04 05:56:53;;;;;;;4.32;2.70;;;5.70;99.90;;;5.98;83.97;97435.84;4978165;28;20030;-81
2020/12/04 05:59:23;;;;;;;4.03;2.70;;;5.70;99.90;;;6.10;82.59;97425.06;4994953;28;20064;-82
2020/12/04 06:01:49;;;;;;;4.65;3.17;;;5.70;99.90;;;6.11;82.56;97442.47;4994515;28;20504;-81
2020/12/04 06:04:18;;;;;;;5.25;2.78;;;5.80;99.90;;;6.10;82.33;97435.38;4978113;28;20030;-82
2020/12/04 06:06:46;;;;;;;3.83;2.65;;;5.80;99.90;;;6.13;81.81;97449.19;4977467;28;20022;-83
2020/12/04 06:09:13;;;;;;;3.75;2.65;;;5.90;99.90;;;6.15;82.72;97452.34;4977941;28;20034;-83
2020/12/04 06:11:44;;;;;;;4.72;3.28;;;5.90;99.90;;;6.12;82.23;97463.44;4977751;28;20557;-82
2020/12/04 06:14:22;;;;;;;7.30;3.42;;;5.80;99.90;;;6.13;81.70;97451.94;4977618;28;20034;-81
2020/12/04 06:17:12;;;;;;;5.00;3.22;;;5.80;99.90;;;6.12;81.86;97450.41;4976987;28;20122;-82
2020/12/04 06:19:42;;;;;;;4.85;2.83;;;5.80;99.90;;;6.08;81.65;97462.69;4977657;28;20030;-81
2020/12/04 06:22:18;;;;;;;4.05;2.65;;;5.80;99.90;;;6.20;81.40;97470.50;4993547;28;20061;-82
2020/12/04 06:24:53;;;;;;;3.97;2.67;;;5.90;99.90;;;6.18;81.34;97478.47;4992991;28;20489;-81
2020/12/04 06:27:44;;;;;;;5.07;2.67;;;5.90;99.90;;;6.27;81.10;97462.16;4977444;28;20030;-82
2020/12/04 06:30:17;;;;;;;3.50;2.53;;;5.90;99.90;;;6.29;80.74;97473.66;4976826;28;20030;-80
2020/12/04 06:32:53;;;;;;;4.68;2.83;;;5.90;99.90;;;6.36;81.54;97476.34;4977307;28;20031;-80
2020/12/04 06:35:43;;;;;;;4.45;2.83;;;5.90;99.90;;;6.32;80.93;97487.44;4993757;28;20029;-82
2020/12/04 06:38:35;;;;;;;4.00;2.80;;;5.90;99.90;;;6.38;81.20;97475.94;4994070;28;20026;-80
2020/12/04 06:41:45;;;;;;;4.60;2.42;;;6.00;99.90;;;6.45;80.20;97471.16;4972216;28;20122;-80
2020/12/04 06:44:25;;;;;;;6.15;2.63;;;6.10;99.90;;;6.55;79.93;97473.03;4994852;28;20058;-80
2020/12/04 06:46:55;;;;;;;3.80;2.20;;;6.20;99.90;;;6.64;79.32;97467.03;4994025;28;20030;-79
2020/12/04 06:49:35;;;;;;;3.65;2.33;;;6.20;99.90;;;6.61;79.20;97462.31;4977666;28;20030;-79
2020/12/04 06:52:16;;;;;;;2.55;2.00;;;6.40;99.90;;;6.66;79.30;97459.88;4995637;28;20129;-82
2020/12/04 06:54:52;;;;;;;2.85;1.90;;;6.30;99.90;;;6.70;79.67;97474.50;4980073;28;20026;-80
2020/12/04 06:57:21;;;;;;;3.45;2.17;;;6.30;99.90;;;6.72;78.64;97463.78;4980969;28;20069;-82
2020/12/04 06:59:48;;;;;;;3.33;1.90;;;6.40;99.90;;;6.77;78.83;97487.53;4980817;28;20088;-81
2020/12/04 07:02:26;;;;;;;2.70;2.00;;;6.40;99.90;;;6.78;78.20;97483.53;4981064;28;20030;-82
2020/12/04 07:04:56;;;;;;;3.90;2.33;;;6.40;99.90;;;6.75;78.79;97506.53;4981250;28;20037;-81
2020/12/04 07:07:25;;;;;;;3.20;2.33;;;6.50;99.90;;;6.80;78.39;97495.03;4980340;28;20065;-82
2020/12/04 07:10:06;;;;;;;2.45;1.70;;;6.50;99.90;;;6.80;78.51;97504.16;4980469;28;20026;-82
2020/12/04 07:12:33;;;;;;;3.35;2.00;;;6.50;99.90;;;6.81;78.39;97493.81;5005420;28;20030;-82
2020/12/04 07:15:00;;;;;;;9.70;2.30;;;6.50;99.90;;;6.78;78.91;97508.50;4981472;28;20027;-81
2020/12/04 07:17:30;;;;;;;4.15;2.20;;;6.50;99.90;;;6.81;78.85;97516.00;4998397;28;20394;-81
2020/12/04 07:19:59;;;;;;;2.13;1.73;;;6.50;99.90;;;6.83;78.64;97514.41;4995998;28;20057;-80
2020/12/04 07:22:27;;;;;;;2.33;1.80;;;6.50;99.90;;;6.80;77.99;97525.53;4996722;28;20162;-80
2020/12/04 07:24:56;;;;;;;2.28;1.73;;;6.50;99.90;;;6.95;78.37;97515.91;4996564;28;20030;-80
2020/12/04 07:28:22;;;;;;;3.92;1.95;;;6.60;99.90;;;6.89;78.66;97523.09;4996701;28;20034;-80
2020/12/04 07:32:03;;;;;;;3.83;2.40;;;6.60;99.90;;;6.84;78.86;97532.63;5040197;23;20057;-80
2020/12/04 07:35:51;;;;;;;2.72;1.90;;;6.50;99.90;;;6.95;77.80;97534.53;4959127;28;20050;-79
2020/12/04 07:43:36;;;;;;;3.08;2.00;;;6.60;99.90;;;6.94;78.11;97544.81;4932699;29;20031;-81
2020/12/04 07:57:35;;;;;;;2.58;1.67;;;6.70;99.90;;;7.03;78.38;97559.00;4963012;29;20034;-80
2020/12/04 08:00:54;;;;;;;3.00;1.70;;;6.60;99.90;;;7.04;77.68;97566.16;4941406;29;20616;-80
2020/12/04 08:04:17;;;;;;;3.63;1.80;;;6.70;99.90;;;7.08;77.70;97560.56;4961575;29;20027;-80
2020/12/04 08:07:33;;;;;;;2.13;1.70;;;6.70;99.90;;;7.16;77.75;97562.88;4959347;28;20047;-79
2020/12/04 08:13:31;;;;;;;2.67;1.77;;;6.80;99.90;;;7.22;78.01;97566.00;5175570;23;20038;-80
2020/12/04 08:17:11;;;;;;;1.95;1.40;;;6.80;99.90;;;7.23;77.38;97589.78;5022596;28;20116;-80
2020/12/04 08:21:11;;;;;;;;;;;;;;;;;;;;;
2020/12/04 08:25:16;;;;;;;2.70;1.73;;;6.90;99.90;;;7.32;77.54;97574.22;4967395;28;20125;-81
2020/12/04 08:36:34;;;;;;;5.10;1.60;;;7.00;99.90;;;7.42;76.30;97595.53;4974149;28;20061;-82
2020/12/04 08:41:03;;;;;;;;;;;;;;;;;;;;;
2020/12/04 08:45:39;;;;;;;2.60;1.30;;;7.10;99.90;;;7.49;76.82;97600.25;4963299;29;20521;-79
2020/12/04 09:13:38;;;;;;;1.48;1.20;;;7.50;99.90;;;7.94;75.54;97603.75;4908443;29;20132;-80
2020/12/04 09:17:31;;;;;;;1.90;1.20;;;7.50;99.90;;;7.88;76.17;97602.63;4890037;29;20041;-80
2020/12/04 09:56:06;;;;;;;2.08;1.20;;;8.00;99.90;;;8.55;72.87;97659.44;5116086;23;20058;-82
2020/12/04 10:03:01;;;;;;;2.28;1.10;;;8.10;99.90;;;8.66;72.83;97652.56;5015953;28;20032;-80
2020/12/04 10:09:29;;;;;;;2.10;1.30;;;8.40;99.90;;;9.21;70.38;97696.72;5666638;23;20056;-83
2020/12/04 10:13:43;;;;;;;;;;;;;;;;;;;;;
2020/12/04 10:20:32;;;;;;;2.30;1.15;;;9.00;99.90;;;9.26;70.29;97692.66;5143846;23;20057;-84
2020/12/04 10:36:16;;;;;;;2.65;1.17;;;9.60;99.90;;;9.78;67.86;97679.88;4895948;29;20057;-83
2020/12/04 10:40:36;;;;;;;;;;;;;;;;;;;;;
2020/12/04 10:48:08;;;;;;;1.77;0.85;;;9.10;99.90;;;9.73;68.01;97697.06;4820154;29;20047;-83
2020/12/04 10:50:34;;;;;;;1.77;1.13;;;9.20;99.90;;;9.96;67.30;97687.91;4852734;29;20041;-81
2020/12/04 10:53:00;;;;;;;1.95;1.08;;;9.50;99.90;;;9.90;66.52;97698.78;4933954;28;20053;-81
2020/12/04 10:55:26;;;;;;;2.42;1.02;;;9.60;99.90;;;10.09;66.38;97694.47;5016620;28;20026;-81
2020/12/04 10:57:52;;;;;;;1.58;1.13;;;9.60;99.90;;;9.80;66.54;97691.38;5015791;28;20030;-82
2020/12/04 11:00:18;;;;;;;2.00;1.20;;;9.50;99.90;;;9.66;68.13;97686.06;5014955;28;20398;-81
2020/12/04 11:02:43;;;;;;;1.73;0.90;;;9.40;99.90;;;9.43;67.65;97686.03;4998375;28;20053;-84
2020/12/04 11:08:11;;;;;;;2.10;1.17;;;8.80;99.90;;;8.86;68.38;97689.63;4993621;28;20027;-81
2020/12/04 11:10:37;;;;;;;1.30;0.90;;;8.60;99.90;;;8.90;69.76;97695.94;4994810;28;20149;-83
2020/12/04 11:13:03;;;;;;;1.02;0.93;;;8.60;99.90;;;8.91;69.58;97696.72;5015500;28;20041;-83
2020/12/04 11:15:32;;;;;;;1.60;0.93;;;8.50;99.90;;;8.84;70.29;97685.69;5015402;28;20058;-83
2020/12/04 11:17:58;;;;;;;2.17;1.10;;;8.50;99.90;;;8.79;69.69;97695.31;5015079;28;20563;-83
2020/12/04 11:20:25;;;;;;;3.13;1.27;;;8.50;99.90;;;8.83;70.02;97692.50;4999183;28;20120;-82
2020/12/04 11:22:53;;;;;;;1.20;1.00;;;8.50;99.90;;;9.15;69.89;97678.88;4998905;28;20482;-83
2020/12/04 11:25:21;;;;;;;1.20;0.73;;;8.60;99.90;;;9.04;69.35;97678.25;5015205;28;20409;-81
2020/12/04 11:27:50;;;;;;;2.20;1.40;;;8.60;99.90;;;9.31;68.47;97675.50;5013286;28;20053;-82
2020/12/04 11:30:21;;;;;;;1.13;0.93;;;8.80;99.90;;;9.08;68.82;97683.78;5013899;28;20037;-82
2020/12/04 11:32:51;;;;;;;3.60;1.13;;;8.70;99.90;;;8.91;69.76;97683.63;5014075;28;20084;-82
2020/12/04 11:35:20;;;;;;;1.98;0.82;;;8.60;99.90;;;8.98;69.38;97683.53;4997944;28;20037;-83
2020/12/04 11:37:49;;;;;;;2.63;1.05;;;8.60;99.90;;;9.34;69.19;97689.34;4997263;28;20049;-82
2020/12/04 11:40:18;;;;;;;4.13;0.82;;;8.80;99.90;;;9.78;66.70;97676.31;5016011;28;20026;-82
2020/12/04 11:42:45;;;;;;;2.08;1.35;;;9.20;99.90;;;9.67;66.27;97701.56;5018095;28;20017;-80
2020/12/04 11:45:16;;;;;;;2.30;0.88;;;9.30;99.90;;;10.21;65.68;97695.88;5018465;28;20508;-81
2020/12/04 11:47:46;;;;;;;2.95;0.95;;;9.50;99.90;;;9.93;65.70;97708.28;5017249;28;20029;-80
2020/12/04 11:50:17;;;;;;;2.42;0.90;;;9.50;99.90;;;9.91;65.91;97714.31;5017726;28;20118;-84
2020/12/04 11:52:46;;;;;;;3.33;1.38;;;9.50;99.90;;;10.32;64.24;97727.94;5017645;28;20037;-83
2020/12/04 11:55:12;;;;;;;1.55;0.80;;;9.70;99.90;;;10.60;64.79;97723.81;5019534;28;20026;-82
2020/12/04 11:57:41;;;;;;;2.70;1.33;;;9.90;99.90;;;10.05;65.49;97724.41;5019922;28;20030;-82
2020/12/04 12:00:10;;;;;;;2.95;1.05;;;9.70;99.90;;;9.55;67.02;97724.44;5018766;28;20041;-81
2020/12/04 12:02:44;;;;;;;1.30;0.80;;;9.30;99.90;;;9.37;67.55;97721.16;5002260;28;20103;-83
2020/12/04 12:05:10;;;;;;;2.58;1.17;;;9.00;99.90;;;9.43;68.17;97723.03;5001440;28;20080;-83
2020/12/04 12:07:36;;;;;;;2.30;1.00;;;8.90;99.90;;;9.30;67.69;97718.47;5020913;28;20026;-81
2020/12/04 12:10:03;;;;;;;3.13;1.10;;;8.90;99.90;;;9.44;67.91;97726.59;5017569;28;20026;-82
2020/12/04 12:12:29;;;;;;;1.25;0.75;;;8.90;99.90;;;9.41;66.92;97724.66;5016372;28;20022;-82
2020/12/04 12:14:55;;;;;;;1.98;1.08;;;8.90;99.90;;;9.53;67.08;97708.13;5008307;28;20057;-84
2020/12/04 12:17:21;;;;;;;3.83;1.10;;;9.00;99.90;;;9.76;66.72;97704.59;4998371;28;20052;-82
2020/12/04 12:19:47;;;;;;;2.00;1.08;;;9.10;99.90;;;9.50;66.51;97708.22;4981847;28;20046;-81
2020/12/04 12:22:13;;;;;;;3.92;1.20;;;9.20;99.90;;;9.60;67.10;97728.75;4999304;28;20042;-81
2020/12/04 12:24:41;;;;;;;1.73;1.00;;;9.10;99.90;;;9.64;67.48;97733.06;4994815;28;20026;-77
2020/12/04 12:27:09;;;;;;;2.53;1.30;;;9.10;99.90;;;9.52;67.56;97736.44;4986244;28;20037;-81
2020/12/04 12:29:36;;;;;;;2.28;1.25;;;9.00;99.90;;;9.30;68.27;97749.88;4994673;28;20068;-81
2020/12/04 12:32:04;;;;;;;2.85;1.13;;;8.90;99.90;;;9.40;68.12;97735.03;5017813;28;20030;-80
2020/12/04 12:37:15;;;;;;;1.88;1.08;;;8.90;99.90;;;9.59;67.58;97710.47;5017914;28;20191;-80
2020/12/04 12:39:42;;;;;;;2.22;0.98;;;8.90;99.90;;;9.28;67.92;97716.09;5000570;28;20101;-80
2020/12/04 12:42:14;;;;;;;1.95;1.10;;;8.90;99.90;;;9.49;67.80;97712.19;5016569;28;20179;-81
2020/12/04 12:44:42;;;;;;;2.28;0.90;;;8.90;99.90;;;9.49;67.72;97715.00;4999191;28;20028;-83
2020/12/04 12:47:10;;;;;;;2.40;1.10;;;9.00;99.90;;;9.54;68.02;97726.44;5015526;28;20033;-82
2020/12/04 12:49:37;;;;;;;2.13;0.93;;;9.00;99.90;;;9.81;67.03;97711.69;5015254;28;20045;-81
2020/12/04 12:52:04;;;;;;;3.63;1.00;;;9.20;99.90;;;9.94;66.34;97705.09;5014532;28;20026;-80
2020/12/04 12:54:30;;;;;;;1.77;1.00;;;9.40;99.90;;;10.20;65.29;97713.81;5016472;28;20029;-83
2020/12/04 12:56:58;;;;;;;1.98;1.38;;;9.50;99.90;;;10.24;65.85;97723.69;4999207;28;20512;-84
2020/12/04 12:59:25;;;;;;;5.57;1.90;;;9.60;99.90;;;10.16;65.58;97744.56;5016155;28;20132;-83
2020/12/04 13:01:55;;;;;;;2.25;1.15;;;9.50;99.90;;;9.92;66.63;97751.34;5016446;28;20026;-85
2020/12/04 13:04:24;;;;;;;4.30;1.40;;;9.30;99.90;;;9.67;67.62;97756.50;5016697;28;20379;-86
2020/12/04 13:06:52;;;;;;;1.45;0.73;;;9.10;99.90;;;9.43;67.17;97742.53;5019695;28;20037;-82
2020/12/04 13:09:20;;;;;;;2.25;1.13;;;9.00;99.90;;;9.60;67.36;97737.88;5019200;28;20033;-83
2020/12/04 13:11:48;;;;;;;2.35;1.00;;;8.90;99.90;;;9.39;67.73;97735.44;5018049;28;20029;-82